This is the latest recevied weather packets stored in our database for station/object OE6JUE. If no packets are shown the sender has not sent any weather packets the latest 1 day(s).
| Time | Temp. | Humidity | Pressure | Rain* | Wind** | Luminosity | Snow |
|---|---|---|---|---|---|---|---|
| 1836274841 | 12.22° C | 98% | 1026.1 hPa | 0 mm | 0 m/s | - | - |
| 1836274540 | 12.22° C | 98% | 1026.1 hPa | 0 mm | 0 m/s | - | - |
| 1836274391 | 12.22° C | 98% | 1026.1 hPa | 0 mm | 0 m/s | - | - |
| 1836274241 | 12.22° C | 98% | 1026.1 hPa | 0 mm | 0 m/s | - | - |
| 1836273941 | 12.22° C | 98% | 1026.1 hPa | 0 mm | 0 m/s | - | - |
| 1778043354 | 15.56° C | 71% | 1011.5 hPa | 0 mm | 0 m/s | - | - |
| 1778043055 | 15.56° C | 79% | 1011.5 hPa | 0 mm | 0 m/s | - | - |
| 1778042755 | 14.44° C | 84% | 1011.5 hPa | 0 mm | 0 m/s | - | - |
| 1778042455 | 12.78° C | 88% | 1011.4 hPa | 0 mm | 0 m/s | - | - |
| 1778042155 | 12.78° C | 88% | 1011.4 hPa | 0 mm | 0 m/s | - | - |
| 1778041855 | 11.11° C | 91% | 1011.3 hPa | 0 mm | 0 m/s | - | - |
| 1778041554 | 10° C | 91% | 1011.4 hPa | 0 mm | 0 m/s | - | - |
| 1778041254 | 8.89° C | 90% | 1011.2 hPa | 0 mm | 0 m/s | - | - |
| 1778040955 | 8.33° C | 90% | 1011.2 hPa | 0 mm | 0.45 m/s, 225° | - | - |
| 1778040654 | 8.33° C | 90% | 1011.4 hPa | 0 mm | 0 m/s | - | - |
| 1778040355 | 8.33° C | 90% | 1011.4 hPa | 0 mm | 0 m/s | - | - |
| 1778040055 | 8.89° C | 90% | 1011.4 hPa | - | 0.45 m/s, 225° | - | - |
| 1778039755 | 8.89° C | 90% | 1011.4 hPa | 0 mm | 0.45 m/s, 225° | - | - |
| 1778039455 | 8.33° C | 90% | 1011.2 hPa | 0 mm | 0 m/s | - | - |
| 1778039154 | 8.33° C | 90% | 1011.1 hPa | 0 mm | 0.45 m/s, 225° | - | - |
| 1778038855 | 8.33° C | 90% | 1011.1 hPa | 0 mm | 0 m/s | - | - |
| 1778038555 | 8.33° C | 90% | 1011.1 hPa | 0 mm | 0 m/s | - | - |
| 1778038254 | 8.33° C | 90% | 1011.2 hPa | 0 mm | 0.45 m/s, 180° | - | - |
| 1778037955 | 8.89° C | 90% | 1011 hPa | 0 mm | 0 m/s | - | - |
| 1778037655 | 8.89° C | 90% | 1011.2 hPa | 0 mm | 0 m/s | - | - |
* Rain latest hour (hover to see other rain measurements)
** Current wind speed in m/s (hover to see current wind gust speed)